Terminal Aerodrome Forecast
Issued by NWS Twin Cities, MN

Home | Current Version | Previous Version | Text Only | Print | Product List | Glossary Off
Versions: 1 2 3 4 5 6 7 8 9 10 11 12 13 14 15 16 17 18 19 20 21 22 23

476
FTUS43 KMPX 182330
TAFMSP
TAF
KMSP 182330Z 1900/2006 31016G23KT P6SM SCT035
     FM190200 31012G19KT P6SM SKC
     FM190600 29006KT P6SM FEW200
     FM191700 23008G17KT P6SM BKN200
     FM192300 21008KT P6SM SCT250=

USA.gov is the U.S. government's official web portal to all federal, state and local government web resources and services.